Time;durP1;ratioP1;P1;durP2;ratioP2;P2;SDS_P1;SDS_P2;PMS_P1;PMS_P2;Temp;Humidity;BMP_temperature;BMP_pressure;BME280_temperature;BME280_humidity;BME280_pressure;Samples;Min_cycle;Max_cycle;Signal;HPM_P1;HPM_P2
2022/11/03 00:02:01;;;;;;;;;;;11.90;99.90;;;;;;5050654;28;19929;-57
2022/11/03 00:04:28;;;;;;;;;;;11.90;99.90;;;;;;5052592;28;19928;-58
2022/11/03 00:06:54;;;;;;;;;;;11.90;99.90;;;;;;5051710;28;19936;-57
2022/11/03 00:09:21;;;;;;;;;;;11.90;99.90;;;;;;5052266;28;20054;-57
2022/11/03 00:11:50;;;;;;;;;;;11.90;99.90;;;;;;5050904;28;19928;-58
2022/11/03 00:14:17;;;;;;;;;;;11.90;99.90;;;;;;5051064;28;19935;-57
2022/11/03 00:16:45;;;;;;;;;;;11.90;99.90;;;;;;5052015;28;19929;-57
2022/11/03 00:19:12;;;;;;;;;;;11.90;99.90;;;;;;5052146;28;19932;-57
2022/11/03 00:21:39;;;;;;;;;;;11.90;99.90;;;;;;5051286;28;19936;-57
2022/11/03 00:24:06;;;;;;;;;;;11.90;99.90;;;;;;5051049;28;19928;-57
2022/11/03 00:26:33;;;;;;;;;;;12.00;99.90;;;;;;5049959;28;19936;-57
2022/11/03 00:29:02;;;;;;;;;;;12.00;99.90;;;;;;5051593;28;19940;-57
2022/11/03 00:31:29;;;;;;;;;;;12.00;99.90;;;;;;5050874;28;19929;-57
2022/11/03 00:33:56;;;;;;;;;;;12.00;99.90;;;;;;5050611;28;19936;-58
2022/11/03 00:36:23;;;;;;;;;;;12.00;99.90;;;;;;5051434;28;20143;-57
2022/11/03 00:38:50;;;;;;;;;;;11.90;99.90;;;;;;5051420;28;19936;-62
2022/11/03 00:41:17;;;;;;;;;;;12.00;99.90;;;;;;5051468;28;19933;-61
2022/11/03 00:43:44;;;;;;;;;;;11.90;99.90;;;;;;5050936;28;20411;-61
2022/11/03 00:46:12;;;;;;;;;;;11.90;99.90;;;;;;5051303;28;21594;-61
2022/11/03 00:48:40;;;;;;;;;;;11.80;99.90;;;;;;5048256;28;19940;-61
2022/11/03 00:51:08;;;;;;;;;;;11.90;99.90;;;;;;5047938;28;21027;-62
2022/11/03 00:53:35;;;;;;;;;;;11.80;99.90;;;;;;5049605;28;19934;-57
2022/11/03 00:56:02;;;;;;;;;;;11.90;99.90;;;;;;5048895;28;22386;-57
2022/11/03 00:58:29;;;;;;;;;;;11.80;99.90;;;;;;5053275;28;19962;-57
2022/11/03 01:00:59;;;;;;;;;;;11.80;99.90;;;;;;5054091;28;19982;-61
2022/11/03 01:03:27;;;;;;;;;;;11.80;99.90;;;;;;5053784;28;19929;-61
2022/11/03 01:08:38;;;;;;;;;;;11.80;99.90;;;;;;5053757;28;19942;-62
2022/11/03 01:13:50;;;;;;;;;;;11.80;99.90;;;;;;5054550;28;20796;-61
2022/11/03 01:16:16;;;;;;;;;;;11.80;99.90;;;;;;5054260;28;19935;-61
2022/11/03 01:18:44;;;;;;;;;;;11.80;99.90;;;;;;5053378;28;22309;-61
2022/11/03 01:21:11;;;;;;;;;;;11.70;99.90;;;;;;5052873;28;19936;-61
2022/11/03 01:23:38;;;;;;;;;;;11.70;99.90;;;;;;5053226;28;19928;-62
2022/11/03 01:26:05;;;;;;;;;;;11.70;99.90;;;;;;5053181;28;19933;-61
2022/11/03 01:28:33;;;;;;;;;;;11.70;99.90;;;;;;5054426;28;20019;-61
2022/11/03 01:31:03;;;;;;;;;;;11.70;99.90;;;;;;5054017;28;19968;-57
2022/11/03 01:33:29;;;;;;;;;;;11.70;99.90;;;;;;5052356;28;19928;-57
2022/11/03 01:35:57;;;;;;;;;;;11.70;99.90;;;;;;5053111;28;19935;-57
2022/11/03 01:38:24;;;;;;;;;;;11.70;99.90;;;;;;5052424;28;19932;-57
2022/11/03 01:40:51;;;;;;;;;;;11.60;99.90;;;;;;5053987;28;19928;-57
2022/11/03 01:43:19;;;;;;;;;;;11.60;99.90;;;;;;5054184;28;19935;-57
2022/11/03 01:45:47;;;;;;;;;;;11.70;99.90;;;;;;5053101;28;20061;-57
2022/11/03 01:48:13;;;;;;;;;;;11.70;99.90;;;;;;5052727;28;19932;-57
2022/11/03 01:50:43;;;;;;;;;;;11.60;99.90;;;;;;5053856;28;19935;-57
2022/11/03 01:53:11;;;;;;;;;;;11.60;99.90;;;;;;5051237;28;20561;-57
2022/11/03 01:55:39;;;;;;;;;;;11.60;99.90;;;;;;5053635;28;19933;-57
2022/11/03 01:58:08;;;;;;;;;;;11.60;99.90;;;;;;5051620;28;19933;-57
2022/11/03 02:00:34;;;;;;;;;;;11.60;99.90;;;;;;5053300;28;19932;-57
2022/11/03 02:03:01;;;;;;;;;;;11.60;99.90;;;;;;5052955;28;20815;-57
2022/11/03 02:05:29;;;;;;;;;;;11.50;99.90;;;;;;5054173;28;19934;-57
2022/11/03 02:07:57;;;;;;;;;;;11.70;99.90;;;;;;5053000;28;20035;-57
2022/11/03 02:10:25;;;;;;;;;;;11.60;99.90;;;;;;5054450;28;19928;-57
2022/11/03 02:12:52;;;;;;;;;;;11.60;99.90;;;;;;5053796;28;19928;-61
2022/11/03 02:15:20;;;;;;;;;;;11.60;99.90;;;;;;5053266;28;20397;-62
2022/11/03 02:17:47;;;;;;;;;;;11.60;99.90;;;;;;5053403;28;21475;-62
2022/11/03 02:20:15;;;;;;;;;;;11.60;99.90;;;;;;5052376;28;19929;-61
2022/11/03 02:22:57;;;;;;;;;;;11.50;99.90;;;;;;5053263;28;20038;-61
2022/11/03 02:25:34;;;;;;;;;;;11.50;99.90;;;;;;5052151;28;19935;-61
2022/11/03 02:28:01;;;;;;;;;;;11.50;99.90;;;;;;5051762;28;19933;-62
2022/11/03 02:30:29;;;;;;;;;;;11.50;99.90;;;;;;5053392;28;19929;-62
2022/11/03 02:32:57;;;;;;;;;;;11.50;99.90;;;;;;5052630;28;20538;-62
2022/11/03 02:35:29;;;;;;;;;;;11.50;99.90;;;;;;5052265;28;21434;-61
2022/11/03 02:37:57;;;;;;;;;;;11.60;99.90;;;;;;5052319;28;19954;-62
2022/11/03 02:40:26;;;;;;;;;;;11.60;99.90;;;;;;5053337;28;19935;-62
2022/11/03 02:42:54;;;;;;;;;;;11.60;99.90;;;;;;5053007;28;19928;-61
2022/11/03 02:45:22;;;;;;;;;;;11.50;99.90;;;;;;5052521;28;19935;-61
2022/11/03 02:47:50;;;;;;;;;;;11.60;99.90;;;;;;5052230;28;20411;-61
2022/11/03 02:50:18;;;;;;;;;;;11.60;99.90;;;;;;5052513;28;19928;-61
2022/11/03 02:52:46;;;;;;;;;;;11.60;99.90;;;;;;5052921;28;19939;-61
2022/11/03 02:55:16;;;;;;;;;;;11.60;99.90;;;;;;5053087;28;20782;-62
2022/11/03 02:57:45;;;;;;;;;;;11.60;99.90;;;;;;5052013;28;19933;-61
2022/11/03 03:00:16;;;;;;;;;;;11.60;99.90;;;;;;5051983;28;20884;-62
2022/11/03 03:02:51;;;;;;;;;;;11.60;99.90;;;;;;5052504;28;19936;-61
2022/11/03 03:05:18;;;;;;;;;;;11.60;99.90;;;;;;5052260;28;20435;-61
2022/11/03 03:07:47;;;;;;;;;;;11.60;99.90;;;;;;5051853;28;19940;-61
2022/11/03 03:10:16;;;;;;;;;;;11.60;99.90;;;;;;5051946;28;19938;-62
2022/11/03 03:12:46;;;;;;;;;;;11.60;99.90;;;;;;5052138;28;19933;-61
2022/11/03 03:15:15;;;;;;;;;;;11.70;99.90;;;;;;5051518;28;19928;-61
2022/11/03 03:17:45;;;;;;;;;;;11.60;99.90;;;;;;5051677;28;19939;-61
2022/11/03 03:20:13;;;;;;;;;;;11.70;99.90;;;;;;5051083;28;19929;-61
2022/11/03 03:22:43;;;;;;;;;;;11.70;99.90;;;;;;5052096;28;22104;-61
2022/11/03 03:25:13;;;;;;;;;;;11.70;99.90;;;;;;5050482;28;20324;-61
2022/11/03 03:27:41;;;;;;;;;;;11.70;99.90;;;;;;5051341;28;19932;-57
2022/11/03 03:30:09;;;;;;;;;;;11.70;99.90;;;;;;5050855;28;19929;-57
2022/11/03 03:32:38;;;;;;;;;;;11.70;99.90;;;;;;5051539;28;20526;-57
2022/11/03 03:35:06;;;;;;;;;;;11.70;99.90;;;;;;5050432;28;19933;-57
2022/11/03 03:37:34;;;;;;;;;;;11.70;99.90;;;;;;5048855;28;19939;-57
2022/11/03 03:40:03;;;;;;;;;;;11.70;99.90;;;;;;5052927;28;19929;-57
2022/11/03 03:42:30;;;;;;;;;;;11.70;99.90;;;;;;5051631;28;19939;-57
2022/11/03 03:44:58;;;;;;;;;;;11.70;99.90;;;;;;5051878;28;19928;-57
2022/11/03 03:47:27;;;;;;;;;;;11.70;99.90;;;;;;5051457;28;20249;-57
2022/11/03 03:49:55;;;;;;;;;;;11.60;99.90;;;;;;5050446;28;19929;-57
2022/11/03 03:52:22;;;;;;;;;;;11.70;99.90;;;;;;5051161;28;19929;-57
2022/11/03 03:54:48;;;;;;;;;;;11.70;99.90;;;;;;5049105;28;19938;-57
2022/11/03 03:57:16;;;;;;;;;;;11.70;99.90;;;;;;5052081;28;22044;-57
2022/11/03 03:59:43;;;;;;;;;;;11.70;99.90;;;;;;5050434;28;19928;-57
2022/11/03 04:02:10;;;;;;;;;;;11.70;99.90;;;;;;5050050;28;19963;-57
2022/11/03 04:04:36;;;;;;;;;;;11.70;99.90;;;;;;5050450;28;19929;-57
2022/11/03 04:09:48;;;;;;;;;;;11.70;99.90;;;;;;5051355;28;19928;-57
2022/11/03 04:23:25;;;;;;;;;;;11.70;99.90;;;;;;5050600;28;20369;-57
2022/11/03 04:25:53;;;;;;;;;;;11.60;99.90;;;;;;5049866;28;19980;-58
2022/11/03 04:28:20;;;;;;;;;;;11.60;99.90;;;;;;5050292;28;20047;-57
2022/11/03 04:30:47;;;;;;;;;;;11.60;99.90;;;;;;5052994;28;19935;-57
2022/11/03 04:33:15;;;;;;;;;;;11.60;99.90;;;;;;5054276;28;19928;-57
2022/11/03 04:35:44;;;;;;;;;;;11.60;99.90;;;;;;5054234;28;21057;-57
2022/11/03 04:38:20;;;;;;;;;;;11.60;99.90;;;;;;5054067;28;21053;-57
2022/11/03 04:40:52;;;;;;;;;;;11.60;99.90;;;;;;5053356;28;19928;-57
2022/11/03 04:43:20;;;;;;;;;;;11.60;99.90;;;;;;5055088;28;19932;-57
2022/11/03 04:45:47;;;;;;;;;;;11.60;99.90;;;;;;5052717;28;19929;-57
2022/11/03 04:48:14;;;;;;;;;;;11.60;99.90;;;;;;5053138;28;19933;-57
2022/11/03 04:50:41;;;;;;;;;;;11.60;99.90;;;;;;5053611;28;19935;-57
2022/11/03 04:53:09;;;;;;;;;;;11.60;99.90;;;;;;5053554;28;19929;-57
2022/11/03 04:55:36;;;;;;;;;;;11.60;99.90;;;;;;5054582;28;20058;-61
2022/11/03 04:58:10;;;;;;;;;;;11.70;99.90;;;;;;5052809;28;19933;-62
2022/11/03 05:00:37;;;;;;;;;;;11.70;99.90;;;;;;5053301;28;19928;-62
2022/11/03 05:03:04;;;;;;;;;;;11.70;99.90;;;;;;5050702;28;19937;-61
2022/11/03 05:05:31;;;;;;;;;;;11.60;99.90;;;;;;5052098;28;19935;-57
2022/11/03 05:07:58;;;;;;;;;;;11.60;99.90;;;;;;5053432;28;20066;-57
2022/11/03 05:10:26;;;;;;;;;;;11.70;99.90;;;;;;5050626;28;19928;-57
2022/11/03 05:12:53;;;;;;;;;;;11.60;99.90;;;;;;5053439;28;19934;-57
2022/11/03 05:15:27;;;;;;;;;;;11.60;99.90;;;;;;5051628;28;19933;-61
2022/11/03 05:17:54;;;;;;;;;;;11.60;99.90;;;;;;5052931;28;19940;-61
2022/11/03 05:20:26;;;;;;;;;;;11.60;99.90;;;;;;5053966;28;20308;-57
2022/11/03 05:22:53;;;;;;;;;;;11.60;99.90;;;;;;5054046;28;19935;-57
2022/11/03 05:25:28;;;;;;;;;;;11.60;99.90;;;;;;5053680;28;19933;-57
2022/11/03 05:27:54;;;;;;;;;;;11.70;99.90;;;;;;5053098;28;22091;-57
2022/11/03 05:30:21;;;;;;;;;;;11.60;99.90;;;;;;5052589;28;19935;-57
2022/11/03 05:32:49;;;;;;;;;;;11.60;99.90;;;;;;5050938;28;19936;-57
2022/11/03 05:35:19;;;;;;;;;;;11.70;99.90;;;;;;5053156;28;20426;-57
2022/11/03 05:37:45;;;;;;;;;;;11.70;99.90;;;;;;5052414;28;20554;-61
2022/11/03 05:40:15;;;;;;;;;;;11.70;99.90;;;;;;5050567;28;19935;-61
2022/11/03 05:42:44;;;;;;;;;;;11.70;99.90;;;;;;5052389;28;19929;-61
2022/11/03 05:45:15;;;;;;;;;;;11.70;99.90;;;;;;5053509;28;19928;-61
2022/11/03 05:47:42;;;;;;;;;;;11.70;99.90;;;;;;5051534;28;19932;-61
2022/11/03 05:50:19;;;;;;;;;;;11.70;99.90;;;;;;5051489;28;19929;-62
2022/11/03 05:52:46;;;;;;;;;;;11.70;99.90;;;;;;5053980;28;19936;-61
2022/11/03 05:55:26;;;;;;;;;;;11.70;99.90;;;;;;5053824;28;19928;-61
2022/11/03 05:57:53;;;;;;;;;;;11.70;99.90;;;;;;5053684;28;19932;-61
2022/11/03 06:00:24;;;;;;;;;;;11.70;99.90;;;;;;5052066;28;19963;-61
2022/11/03 06:02:51;;;;;;;;;;;11.70;99.90;;;;;;5052782;28;19936;-61
2022/11/03 06:05:20;;;;;;;;;;;11.70;99.90;;;;;;5053230;28;21271;-62
2022/11/03 06:07:47;;;;;;;;;;;11.80;99.90;;;;;;5053253;28;20053;-61
2022/11/03 06:10:20;;;;;;;;;;;11.70;99.90;;;;;;5053520;28;19929;-61
2022/11/03 06:12:47;;;;;;;;;;;11.70;99.90;;;;;;5053850;28;19933;-62
2022/11/03 06:15:24;;;;;;;;;;;11.70;99.90;;;;;;5050465;28;19959;-61
2022/11/03 06:17:52;;;;;;;;;;;11.70;99.90;;;;;;5052464;28;19939;-57
2022/11/03 06:20:21;;;;;;;;;;;11.70;99.90;;;;;;5053172;28;20426;-57
2022/11/03 06:22:48;;;;;;;;;;;11.70;99.90;;;;;;5052301;28;20746;-57
2022/11/03 06:25:21;;;;;;;;;;;11.70;99.90;;;;;;5052203;28;20471;-57
2022/11/03 06:27:48;;;;;;;;;;;11.70;99.90;;;;;;5053388;28;20400;-57
2022/11/03 06:30:20;;;;;;;;;;;11.60;99.90;;;;;;5052380;28;20095;-57
2022/11/03 06:32:46;;;;;;;;;;;11.70;99.90;;;;;;5051218;28;19928;-57
2022/11/03 06:35:14;;;;;;;;;;;11.70;99.90;;;;;;5051847;28;19975;-57
2022/11/03 06:37:42;;;;;;;;;;;11.70;99.90;;;;;;5052233;28;19933;-57
2022/11/03 06:40:24;;;;;;;;;;;11.70;99.90;;;;;;5053060;28;20315;-57
2022/11/03 06:42:51;;;;;;;;;;;11.70;99.90;;;;;;5051622;28;19929;-57
2022/11/03 06:45:19;;;;;;;;;;;11.70;99.90;;;;;;5052851;28;20398;-57
2022/11/03 06:47:46;;;;;;;;;;;11.70;99.90;;;;;;5048253;28;19932;-57
2022/11/03 06:50:20;;;;;;;;;;;11.70;99.90;;;;;;5050800;28;19929;-57
2022/11/03 06:52:49;;;;;;;;;;;11.70;99.90;;;;;;5050426;28;21184;-57
2022/11/03 06:55:21;;;;;;;;;;;11.70;99.90;;;;;;5051942;28;19929;-57
2022/11/03 06:57:50;;;;;;;;;;;11.70;99.90;;;;;;5051701;28;19933;-57
2022/11/03 07:00:20;;;;;;;;;;;11.70;99.90;;;;;;5051823;28;20281;-57
2022/11/03 07:03:00;;;;;;;;;;;11.70;99.90;;;;;;5051532;28;19930;-57
2022/11/03 07:05:28;;;;;;;;;;;11.70;99.90;;;;;;5050107;28;19936;-57
2022/11/03 07:07:57;;;;;;;;;;;11.70;99.90;;;;;;5051095;28;19940;-57
2022/11/03 07:10:24;;;;;;;;;;;11.70;99.90;;;;;;5050500;28;19935;-57
2022/11/03 07:12:52;;;;;;;;;;;11.80;99.90;;;;;;5050976;28;19932;-57
2022/11/03 07:15:22;;;;;;;;;;;11.80;99.90;;;;;;5050786;28;19928;-57
2022/11/03 07:17:49;;;;;;;;;;;11.80;99.90;;;;;;5050715;28;19944;-57
2022/11/03 07:20:16;;;;;;;;;;;11.80;99.90;;;;;;5050800;28;19928;-57
2022/11/03 07:22:43;;;;;;;;;;;11.80;99.90;;;;;;5051674;28;19940;-57
2022/11/03 07:25:14;;;;;;;;;;;11.80;99.90;;;;;;5050482;28;19928;-57
2022/11/03 07:27:40;;;;;;;;;;;11.80;99.90;;;;;;5049780;28;19932;-57
2022/11/03 07:30:14;;;;;;;;;;;11.90;99.90;;;;;;5051968;28;20060;-57
2022/11/03 07:32:40;;;;;;;;;;;11.90;99.90;;;;;;5050568;28;21095;-57
2022/11/03 07:35:18;;;;;;;;;;;11.90;99.90;;;;;;5050892;28;19952;-57
2022/11/03 07:37:45;;;;;;;;;;;11.90;99.90;;;;;;5051570;28;20387;-57
2022/11/03 07:40:16;;;;;;;;;;;12.00;99.90;;;;;;5052669;28;19962;-57
2022/11/03 07:42:43;;;;;;;;;;;11.90;99.90;;;;;;5051713;28;19936;-57
2022/11/03 07:45:31;;;;;;;;;;;11.90;99.90;;;;;;5051731;28;19929;-57
2022/11/03 07:47:57;;;;;;;;;;;12.00;99.90;;;;;;5048512;28;19933;-57
2022/11/03 07:50:24;;;;;;;;;;;12.00;99.90;;;;;;5048294;28;19979;-57
2022/11/03 07:52:51;;;;;;;;;;;12.10;99.90;;;;;;5047664;28;20209;-57
2022/11/03 07:55:31;;;;;;;;;;;12.10;99.90;;;;;;5048379;28;19928;-57
2022/11/03 07:57:59;;;;;;;;;;;12.10;99.90;;;;;;5046839;28;19933;-57
2022/11/03 08:00:26;;;;;;;;;;;12.10;99.90;;;;;;5050436;28;19929;-57
2022/11/03 08:02:55;;;;;;;;;;;12.10;99.90;;;;;;5051991;28;19959;-57
2022/11/03 08:05:22;;;;;;;;;;;12.20;99.90;;;;;;5051609;28;19929;-57
2022/11/03 08:07:52;;;;;;;;;;;12.20;99.90;;;;;;5053421;28;20393;-57
2022/11/03 08:10:21;;;;;;;;;;;12.20;99.90;;;;;;5049877;28;19935;-57
2022/11/03 08:12:47;;;;;;;;;;;12.20;99.90;;;;;;5052762;28;20422;-57
2022/11/03 08:15:14;;;;;;;;;;;12.30;99.90;;;;;;5052529;28;20434;-57
2022/11/03 08:17:44;;;;;;;;;;;12.30;99.90;;;;;;5052772;28;19940;-57
2022/11/03 08:20:11;;;;;;;;;;;12.30;99.90;;;;;;5049384;28;20007;-57
2022/11/03 08:22:47;;;;;;;;;;;12.30;99.90;;;;;;5051187;28;19935;-57
2022/11/03 08:25:13;;;;;;;;;;;12.30;99.90;;;;;;5050452;28;19929;-57
2022/11/03 08:27:41;;;;;;;;;;;12.40;99.90;;;;;;5045524;28;19932;-57
2022/11/03 08:30:08;;;;;;;;;;;12.50;99.90;;;;;;5047011;28;20374;-57
2022/11/03 08:32:35;;;;;;;;;;;12.50;99.90;;;;;;5046564;28;20024;-57
2022/11/03 08:35:02;;;;;;;;;;;12.60;99.90;;;;;;5051011;28;20441;-57
2022/11/03 08:37:29;;;;;;;;;;;12.70;99.90;;;;;;5049783;28;19932;-57
2022/11/03 08:39:55;;;;;;;;;;;12.80;99.90;;;;;;5050339;28;19936;-57
2022/11/03 08:42:22;;;;;;;;;;;12.80;99.90;;;;;;5049606;28;19929;-57
2022/11/03 08:44:50;;;;;;;;;;;12.90;99.90;;;;;;5046116;28;22154;-57
2022/11/03 08:47:17;;;;;;;;;;;13.00;99.90;;;;;;5046352;28;20486;-57
2022/11/03 08:49:44;;;;;;;;;;;13.00;99.90;;;;;;5048087;28;20665;-57
2022/11/03 08:52:11;;;;;;;;;;;13.10;99.90;;;;;;5047241;28;19940;-57
2022/11/03 08:54:37;;;;;;;;;;;13.10;99.90;;;;;;5048710;28;19928;-57
2022/11/03 08:57:04;;;;;;;;;;;13.10;99.90;;;;;;5049479;28;19943;-57
2022/11/03 08:59:30;;;;;;;;;;;13.20;99.90;;;;;;5048510;28;19936;-57
2022/11/03 09:01:58;;;;;;;;;;;13.20;99.90;;;;;;5047931;28;19963;-57
2022/11/03 09:04:25;;;;;;;;;;;13.20;99.90;;;;;;5048447;28;20022;-57
2022/11/03 09:06:52;;;;;;;;;;;13.20;99.90;;;;;;5049207;28;19939;-57
2022/11/03 09:09:20;;;;;;;;;;;13.30;99.90;;;;;;5050204;28;19929;-57
2022/11/03 09:11:46;;;;;;;;;;;13.20;99.90;;;;;;5049209;28;19929;-57
2022/11/03 09:14:13;;;;;;;;;;;13.30;99.90;;;;;;5047925;28;20067;-57
2022/11/03 09:16:40;;;;;;;;;;;13.20;99.90;;;;;;5048402;28;19939;-57
2022/11/03 09:19:08;;;;;;;;;;;13.30;99.90;;;;;;5048337;28;20411;-57
2022/11/03 09:21:34;;;;;;;;;;;13.30;99.90;;;;;;5053078;28;19928;-57
2022/11/03 09:24:01;;;;;;;;;;;13.30;99.90;;;;;;5052692;28;19990;-57
2022/11/03 09:26:28;;;;;;;;;;;13.30;99.90;;;;;;5052658;28;20022;-57
2022/11/03 09:28:54;;;;;;;;;;;13.30;99.90;;;;;;5052236;28;20655;-57
2022/11/03 09:31:22;;;;;;;;;;;13.40;99.90;;;;;;5048840;28;19928;-57
2022/11/03 09:33:48;;;;;;;;;;;13.40;99.90;;;;;;5050814;28;20415;-57
2022/11/03 09:36:16;;;;;;;;;;;13.40;99.90;;;;;;5053713;28;19933;-57
2022/11/03 09:38:43;;;;;;;;;;;13.40;99.90;;;;;;5053859;28;20497;-57
2022/11/03 09:41:16;;;;;;;;;;;13.40;99.90;;;;;;5053351;28;19928;-57
2022/11/03 09:43:43;;;;;;;;;;;13.50;99.90;;;;;;5053244;28;19929;-57
2022/11/03 09:46:09;;;;;;;;;;;13.50;99.90;;;;;;5050944;28;20323;-57
2022/11/03 09:48:36;;;;;;;;;;;13.50;99.90;;;;;;5046652;28;19991;-57
2022/11/03 09:51:03;;;;;;;;;;;13.50;99.90;;;;;;5050560;28;19928;-57
2022/11/03 09:53:31;;;;;;;;;;;13.60;99.90;;;;;;5052372;28;19929;-57
2022/11/03 09:55:57;;;;;;;;;;;13.60;99.90;;;;;;5050856;28;20388;-57
2022/11/03 09:58:24;;;;;;;;;;;13.70;99.90;;;;;;5049493;28;20055;-57
2022/11/03 10:00:51;;;;;;;;;;;13.70;99.90;;;;;;5051139;28;20603;-57
2022/11/03 10:03:19;;;;;;;;;;;13.80;99.90;;;;;;5050615;28;19929;-57
2022/11/03 10:05:49;;;;;;;;;;;13.90;99.90;;;;;;5049668;28;20521;-57
2022/11/03 10:08:19;;;;;;;;;;;13.90;99.90;;;;;;5052525;28;21807;-57
2022/11/03 10:10:47;;;;;;;;;;;13.90;99.90;;;;;;5051126;28;19928;-57
2022/11/03 10:13:18;;;;;;;;;;;14.00;99.90;;;;;;5052557;28;19971;-57
2022/11/03 10:15:44;;;;;;;;;;;14.10;99.90;;;;;;5051559;28;19932;-57
2022/11/03 10:18:11;;;;;;;;;;;14.10;99.90;;;;;;5053690;28;19933;-57
2022/11/03 10:20:38;;;;;;;;;;;14.10;99.90;;;;;;5052710;28;19928;-61
2022/11/03 10:23:04;;;;;;;;;;;14.10;99.90;;;;;;5052376;28;19929;-61
2022/11/03 10:25:36;;;;;;;;;;;14.10;99.90;;;;;;5052827;28;20889;-61
2022/11/03 10:28:26;;;;;;;;;;;14.20;99.90;;;;;;5052730;28;20327;-61
2022/11/03 10:30:56;;;;;;;;;;;14.10;99.90;;;;;;5028855;28;19928;-61
2022/11/03 10:33:30;;;;;;;;;;;14.20;99.90;;;;;;5049095;28;21149;-61
2022/11/03 10:35:57;;;;;;;;;;;14.20;99.90;;;;;;5049890;28;19939;-61
2022/11/03 10:38:27;;;;;;;;;;;14.20;99.90;;;;;;5049789;28;20418;-61
2022/11/03 10:40:54;;;;;;;;;;;14.20;99.90;;;;;;5052142;28;20167;-61
2022/11/03 10:43:21;;;;;;;;;;;14.20;99.90;;;;;;5051608;28;19929;-61
2022/11/03 10:45:49;;;;;;;;;;;14.30;99.90;;;;;;5052252;28;19940;-62
2022/11/03 10:48:17;;;;;;;;;;;14.20;99.90;;;;;;5052557;28;19940;-61
2022/11/03 10:50:43;;;;;;;;;;;14.30;99.90;;;;;;5050704;28;20050;-62
2022/11/03 10:53:16;;;;;;;;;;;14.30;99.90;;;;;;5051082;28;19929;-61
2022/11/03 10:55:42;;;;;;;;;;;14.30;99.90;;;;;;5052364;28;19995;-61
2022/11/03 10:58:09;;;;;;;;;;;14.40;99.90;;;;;;5050476;28;20431;-61
2022/11/03 11:00:36;;;;;;;;;;;14.50;99.90;;;;;;5048479;28;19978;-62
2022/11/03 11:03:03;;;;;;;;;;;14.50;99.90;;;;;;5045291;28;20721;-61
2022/11/03 11:05:31;;;;;;;;;;;14.50;99.90;;;;;;5046882;28;19933;-62
2022/11/03 11:07:58;;;;;;;;;;;14.50;99.90;;;;;;5051286;28;19983;-61
2022/11/03 11:10:26;;;;;;;;;;;14.60;99.90;;;;;;5050667;28;19935;-61
2022/11/03 11:13:06;;;;;;;;;;;14.60;99.90;;;;;;5048351;28;20090;-61
2022/11/03 11:15:37;;;;;;;;;;;14.60;99.90;;;;;;5043976;28;19933;-61
2022/11/03 11:18:04;;;;;;;;;;;14.70;99.90;;;;;;5049002;28;20279;-61
2022/11/03 11:20:36;;;;;;;;;;;14.80;99.90;;;;;;5048400;28;19935;-61
2022/11/03 11:23:22;;;;;;;;;;;14.80;99.90;;;;;;5049079;28;19928;-61
2022/11/03 11:26:14;;;;;;;;;;;15.00;99.90;;;;;;5047922;28;20083;-60
2022/11/03 11:28:41;;;;;;;;;;;15.00;99.90;;;;;;5049083;28;19932;-61
2022/11/03 11:31:26;;;;;;;;;;;15.10;99.90;;;;;;5049032;28;19929;-61
2022/11/03 11:34:08;;;;;;;;;;;15.10;99.90;;;;;;5049084;28;19935;-62
2022/11/03 11:36:36;;;;;;;;;;;15.10;99.90;;;;;;5048189;28;19932;-61
2022/11/03 11:39:03;;;;;;;;;;;15.20;99.90;;;;;;5046251;28;19932;-61
2022/11/03 11:41:48;;;;;;;;;;;15.20;99.90;;;;;;5047396;28;19936;-61
2022/11/03 11:44:34;;;;;;;;;;;15.20;99.90;;;;;;5049336;28;19928;-62
2022/11/03 11:47:00;;;;;;;;;;;15.20;99.90;;;;;;5044776;28;19940;-62
2022/11/03 11:49:27;;;;;;;;;;;15.20;99.90;;;;;;5047712;28;19963;-61
2022/11/03 11:52:00;;;;;;;;;;;15.20;99.90;;;;;;5049912;28;19935;-61
2022/11/03 11:54:27;;;;;;;;;;;15.20;99.90;;;;;;5050265;28;20107;-61
2022/11/03 11:56:54;;;;;;;;;;;15.20;99.90;;;;;;5049563;28;19990;-61
2022/11/03 11:59:22;;;;;;;;;;;15.20;99.90;;;;;;5049666;28;20432;-61
2022/11/03 12:01:50;;;;;;;;;;;15.20;99.90;;;;;;5048110;28;19929;-62
2022/11/03 12:04:19;;;;;;;;;;;15.20;99.90;;;;;;5048622;28;20006;-62
2022/11/03 12:06:45;;;;;;;;;;;15.20;99.90;;;;;;5047433;28;19933;-61
2022/11/03 12:09:17;;;;;;;;;;;15.20;99.90;;;;;;5049096;28;19933;-61
2022/11/03 12:11:45;;;;;;;;;;;15.20;99.90;;;;;;5048211;28;19936;-61
2022/11/03 12:14:25;;;;;;;;;;;15.20;99.90;;;;;;5049243;28;19929;-61
2022/11/03 12:16:51;;;;;;;;;;;15.20;99.90;;;;;;5048785;28;19939;-61
2022/11/03 12:19:34;;;;;;;;;;;15.20;99.90;;;;;;5048434;28;20847;-61
2022/11/03 12:22:01;;;;;;;;;;;15.20;99.90;;;;;;5048077;28;19928;-61
2022/11/03 12:24:37;;;;;;;;;;;15.20;99.90;;;;;;5050058;28;19940;-61
2022/11/03 12:27:16;;;;;;;;;;;15.20;99.90;;;;;;5048836;28;19983;-61
2022/11/03 12:29:46;;;;;;;;;;;15.20;99.90;;;;;;5050107;28;19935;-61
2022/11/03 12:32:12;;;;;;;;;;;15.20;99.90;;;;;;5047884;28;19959;-61
2022/11/03 12:34:39;;;;;;;;;;;15.20;99.90;;;;;;5047507;28;20637;-62
2022/11/03 12:37:06;;;;;;;;;;;15.10;99.90;;;;;;5046534;28;19939;-61
2022/11/03 12:39:32;;;;;;;;;;;15.10;99.90;;;;;;5049800;28;19928;-61
2022/11/03 12:42:00;;;;;;;;;;;15.10;99.90;;;;;;5049762;28;20679;-61
2022/11/03 12:44:27;;;;;;;;;;;15.10;99.90;;;;;;5048614;28;19939;-61
2022/11/03 12:46:54;;;;;;;;;;;15.10;99.90;;;;;;5050295;28;19976;-61
2022/11/03 12:49:20;;;;;;;;;;;15.10;99.90;;;;;;5049919;28;20795;-61
2022/11/03 12:51:47;;;;;;;;;;;15.10;99.90;;;;;;5051523;28;19928;-61
2022/11/03 12:54:14;;;;;;;;;;;15.10;99.90;;;;;;5051379;28;20690;-62
2022/11/03 12:56:41;;;;;;;;;;;15.10;99.90;;;;;;5053737;28;19975;-61
2022/11/03 12:59:09;;;;;;;;;;;15.10;99.90;;;;;;5054071;28;19929;-61
2022/11/03 13:01:36;;;;;;;;;;;15.10;99.40;;;;;;5051038;28;20146;-61
2022/11/03 13:04:04;;;;;;;;;;;15.10;99.60;;;;;;5050121;28;20403;-62
2022/11/03 13:06:31;;;;;;;;;;;15.10;99.30;;;;;;5053068;28;20434;-61
2022/11/03 13:08:57;;;;;;;;;;;15.10;99.30;;;;;;5052177;28;19928;-62
2022/11/03 13:14:09;;;;;;;;;;;15.10;99.00;;;;;;5011603;28;20035;-62
2022/11/03 13:16:36;;;;;;;;;;;15.10;99.30;;;;;;5051549;28;20396;-61
2022/11/03 13:19:02;;;;;;;;;;;15.20;99.10;;;;;;5051890;28;19929;-62
2022/11/03 13:21:29;;;;;;;;;;;15.20;98.70;;;;;;5050773;28;19936;-61
2022/11/03 13:23:56;;;;;;;;;;;15.20;99.10;;;;;;5050697;28;19955;-62
2022/11/03 13:26:26;;;;;;;;;;;15.20;99.10;;;;;;5047224;28;20028;-62
2022/11/03 13:28:52;;;;;;;;;;;15.20;98.70;;;;;;5049552;28;19929;-57
2022/11/03 13:31:20;;;;;;;;;;;15.20;98.10;;;;;;5051308;28;19928;-57
2022/11/03 13:33:47;;;;;;;;;;;15.20;98.60;;;;;;5050971;28;20288;-57
2022/11/03 13:36:14;;;;;;;;;;;15.20;98.30;;;;;;5051917;28;20741;-57
2022/11/03 13:38:40;;;;;;;;;;;15.20;98.40;;;;;;5052322;28;20023;-57
2022/11/03 13:41:07;;;;;;;;;;;15.20;97.90;;;;;;5051719;28;19929;-57
2022/11/03 13:43:34;;;;;;;;;;;15.20;98.50;;;;;;5052873;28;20038;-57
2022/11/03 13:46:01;;;;;;;;;;;15.20;98.20;;;;;;5052013;28;19932;-57
2022/11/03 13:48:29;;;;;;;;;;;15.10;98.10;;;;;;5051278;28;19933;-57
2022/11/03 13:50:55;;;;;;;;;;;15.10;98.30;;;;;;5049228;28;19929;-57
2022/11/03 13:53:23;;;;;;;;;;;15.10;98.40;;;;;;5052366;28;19976;-57
2022/11/03 13:55:49;;;;;;;;;;;15.10;98.70;;;;;;5051127;28;20767;-57
2022/11/03 13:58:16;;;;;;;;;;;15.10;98.60;;;;;;5051897;28;19928;-57
2022/11/03 14:00:43;;;;;;;;;;;15.10;98.70;;;;;;5052118;28;19935;-57
2022/11/03 14:03:09;;;;;;;;;;;15.00;98.80;;;;;;5050285;28;19928;-57
2022/11/03 14:05:37;;;;;;;;;;;15.00;99.00;;;;;;5051654;28;19933;-57
2022/11/03 14:08:04;;;;;;;;;;;15.00;98.80;;;;;;5050662;28;20063;-57
2022/11/03 14:10:31;;;;;;;;;;;15.00;99.10;;;;;;5050638;28;19933;-57
2022/11/03 14:12:57;;;;;;;;;;;15.00;99.00;;;;;;5051852;28;19928;-57
2022/11/03 14:15:23;;;;;;;;;;;15.00;99.00;;;;;;5049856;28;19937;-57
2022/11/03 14:17:50;;;;;;;;;;;15.00;99.10;;;;;;5047822;28;21980;-57
2022/11/03 14:20:17;;;;;;;;;;;15.00;98.90;;;;;;5051458;28;19928;-57
2022/11/03 14:22:45;;;;;;;;;;;15.00;98.90;;;;;;5048578;28;19929;-57
2022/11/03 14:25:11;;;;;;;;;;;15.00;99.30;;;;;;5051172;28;19932;-57
2022/11/03 14:27:38;;;;;;;;;;;15.00;98.80;;;;;;5051726;28;19929;-57
2022/11/03 14:30:05;;;;;;;;;;;15.00;98.40;;;;;;5050988;28;19968;-57
2022/11/03 14:32:32;;;;;;;;;;;15.00;98.60;;;;;;5050225;28;19933;-57
2022/11/03 14:34:58;;;;;;;;;;;14.90;98.70;;;;;;5051088;28;20094;-57
2022/11/03 14:37:25;;;;;;;;;;;14.90;98.60;;;;;;5051333;28;19929;-57
2022/11/03 14:39:53;;;;;;;;;;;14.90;98.40;;;;;;5051839;28;20045;-57
2022/11/03 14:42:19;;;;;;;;;;;14.90;98.60;;;;;;5050955;28;19936;-56
2022/11/03 14:44:46;;;;;;;;;;;14.90;98.50;;;;;;5049691;28;20925;-57
2022/11/03 14:47:13;;;;;;;;;;;14.90;98.70;;;;;;5049644;28;19987;-57